createdAt,value
2018-11-29T00:01:53.935Z,17.83
2018-11-29T00:04:47.247Z,17.80
2018-11-29T00:07:39.411Z,17.60
2018-11-29T00:10:31.468Z,17.60
2018-11-29T00:13:42.304Z,17.40
2018-11-29T00:16:34.295Z,17.40
2018-11-29T00:19:25.777Z,18.00
2018-11-29T00:22:17.916Z,18.47
2018-11-29T00:25:10.748Z,18.47
2018-11-29T00:28:02.262Z,18.97
2018-11-29T00:30:53.743Z,18.83
2018-11-29T00:33:45.783Z,18.47
2018-11-29T00:39:47.896Z,18.43
2018-11-29T00:42:58.639Z,18.90
2018-11-29T00:46:09.916Z,19.23
2018-11-29T00:49:20.364Z,19.63
2018-11-29T00:52:31.211Z,17.33
2018-11-29T00:55:44.236Z,20.13
2018-11-29T00:58:36.484Z,19.53
2018-11-29T01:02:06.612Z,19.77
2018-11-29T01:04:58.383Z,20.03
2018-11-29T01:07:51.027Z,19.50
2018-11-29T01:10:43.436Z,19.53
2018-11-29T01:13:54.142Z,18.97
2018-11-29T01:16:45.983Z,20.07
2018-11-29T01:19:58.501Z,19.73
2018-11-29T01:26:40.297Z,19.80
2018-11-29T01:29:32.119Z,20.10
2018-11-29T01:32:23.818Z,19.00
2018-11-29T01:35:38.646Z,19.90
2018-11-29T01:39:04.675Z,19.73
2018-11-29T01:41:43.499Z,20.37
2018-11-29T01:44:38.555Z,19.70
2018-11-29T01:47:49.389Z,20.07
2018-11-29T01:50:40.978Z,18.83
2018-11-29T01:53:32.496Z,20.53
2018-11-29T01:56:23.928Z,19.37
2018-11-29T01:59:15.486Z,18.67
2018-11-29T02:02:26.704Z,19.50
2018-11-29T02:11:38.646Z,19.67
2018-11-29T02:14:30.200Z,18.90
2018-11-29T02:17:53.349Z,20.70
2018-11-29T02:20:33.627Z,19.43
2018-11-29T02:23:25.113Z,19.30
2018-11-29T02:26:16.622Z,19.37
2018-11-29T02:29:08.150Z,20.27
2018-11-29T02:31:59.607Z,19.47
2018-11-29T02:34:51.784Z,19.47
2018-11-29T02:38:02.332Z,19.37
2018-11-29T02:43:53.115Z,18.90
2018-11-29T02:46:45.115Z,19.80
2018-11-29T02:49:33.457Z,19.23
2018-11-29T02:52:25.719Z,19.97
2018-11-29T02:55:36.625Z,18.90
2018-11-29T02:58:47.877Z,20.27
2018-11-29T03:05:29.069Z,19.80
2018-11-29T03:08:21.904Z,18.93
2018-11-29T03:11:50.998Z,20.03
2018-11-29T03:14:42.499Z,19.57
2018-11-29T03:23:43.261Z,19.27
2018-11-29T03:26:34.743Z,18.30
2018-11-29T03:36:03.326Z,19.23
2018-11-29T03:39:24.155Z,19.93
2018-11-29T03:42:15.752Z,19.47
2018-11-29T03:45:08.318Z,19.27
2018-11-29T03:48:19.563Z,21.73
2018-11-29T03:51:12.026Z,20.43
2018-11-29T03:54:22.840Z,18.23
2018-11-29T03:57:33.948Z,18.20
2018-11-29T04:00:25.683Z,18.53
2018-11-29T04:03:17.262Z,19.23
2018-11-29T04:09:44.538Z,19.93
2018-11-29T04:12:53.626Z,19.43
2018-11-29T04:18:45.259Z,19.40
2018-11-29T04:21:36.836Z,18.83
2018-11-29T04:24:28.672Z,18.13
2018-11-29T04:30:30.449Z,19.13
2018-11-29T04:33:42.512Z,18.60
2018-11-29T04:36:34.916Z,19.23
2018-11-29T04:39:26.736Z,21.17
2018-11-29T04:42:37.946Z,19.67
2018-11-29T04:45:55.063Z,19.33
2018-11-29T04:49:06.143Z,19.93
2018-11-29T04:51:58.077Z,21.00
2018-11-29T04:55:08.209Z,19.50
2018-11-29T05:03:42.421Z,20.57
2018-11-29T05:06:34.086Z,20.60
2018-11-29T05:09:25.653Z,20.83
2018-11-29T05:12:36.571Z,21.00
2018-11-29T05:19:02.804Z,21.33
2018-11-29T05:21:55.240Z,22.47
2018-11-29T05:24:47.315Z,21.83
2018-11-29T05:27:57.923Z,21.27
2018-11-29T05:30:49.345Z,22.63
2018-11-29T05:33:22.418Z,22.60
2018-11-29T05:36:14.486Z,21.73
2018-11-29T05:39:27.422Z,21.23
2018-11-29T05:42:18.224Z,21.37
2018-11-29T05:45:09.839Z,20.87
2018-11-29T05:48:02.791Z,21.70
2018-11-29T05:50:53.593Z,21.50
2018-11-29T05:54:03.967Z,21.40
2018-11-29T05:57:16.199Z,21.90
2018-11-29T06:00:09.919Z,22.43
2018-11-29T06:03:07.436Z,21.20
2018-11-29T06:18:23.806Z,22.07
2018-11-29T06:21:14.660Z,20.60
2018-11-29T06:24:13.515Z,21.40
2018-11-29T06:27:20.860Z,21.67
2018-11-29T06:30:22.015Z,19.87
2018-11-29T06:33:14.276Z,21.83
2018-11-29T06:36:26.467Z,23.53
2018-11-29T06:39:17.681Z,21.03
2018-11-29T06:41:50.032Z,22.07
2018-11-29T06:45:00.756Z,21.77
2018-11-29T06:49:48.687Z,21.90
2018-11-29T06:51:04.136Z,20.80
2018-11-29T06:54:13.686Z,22.27
2018-11-29T06:57:05.230Z,22.07
2018-11-29T07:03:34.030Z,23.30
2018-11-29T07:06:43.657Z,21.80
2018-11-29T07:09:34.457Z,22.63
2018-11-29T07:15:22.794Z,22.53
2018-11-29T07:18:13.508Z,22.77
2018-11-29T07:21:42.973Z,22.73
2018-11-29T07:24:48.155Z,22.77
2018-11-29T07:27:27.884Z,22.90
2018-11-29T07:30:39.998Z,21.27
2018-11-29T07:33:30.847Z,21.67
2018-11-29T07:39:18.861Z,23.43
2018-11-29T07:42:09.561Z,21.87
2018-11-29T07:45:18.981Z,22.20
2018-11-29T07:48:29.661Z,21.83
2018-11-29T07:51:21.286Z,20.97
2018-11-29T07:54:31.232Z,22.00
2018-11-29T08:00:32.537Z,21.97
2018-11-29T08:03:42.814Z,22.10
2018-11-29T08:06:34.200Z,22.07
2018-11-29T08:09:44.399Z,22.17
2018-11-29T08:12:37.523Z,22.47
2018-11-29T08:15:48.865Z,23.00
2018-11-29T08:18:39.568Z,22.23
2018-11-29T08:21:49.905Z,20.57
2018-11-29T08:24:41.268Z,21.63
2018-11-29T08:27:33.415Z,21.83
2018-11-29T08:30:44.004Z,21.80
2018-11-29T08:33:54.413Z,22.93
2018-11-29T08:36:45.176Z,22.37
2018-11-29T08:39:56.522Z,22.57
2018-11-29T08:46:03.230Z,22.27
2018-11-29T08:48:55.119Z,20.77
2018-11-29T08:52:04.619Z,20.83
2018-11-29T08:54:56.798Z,22.07
2018-11-29T08:58:08.594Z,21.30
2018-11-29T09:01:19.939Z,20.40
2018-11-29T09:04:10.943Z,21.30
2018-11-29T09:07:20.149Z,22.47
2018-11-29T09:10:36.709Z,20.80
2018-11-29T09:13:28.898Z,21.20
2018-11-29T09:16:19.509Z,20.43
2018-11-29T09:19:10.866Z,22.33
2018-11-29T09:22:01.608Z,21.03
2018-11-29T09:24:52.352Z,21.40
2018-11-29T09:27:44.264Z,20.33
2018-11-29T09:31:14.425Z,21.03
2018-11-29T09:34:06.552Z,20.23
2018-11-29T09:36:58.538Z,19.73
2018-11-29T09:40:08.627Z,19.83
2018-11-29T09:46:15.805Z,21.10
2018-11-29T09:49:07.046Z,20.50
2018-11-29T09:52:17.367Z,20.10
2018-11-29T09:55:29.948Z,19.10
2018-11-29T09:58:21.140Z,19.77
2018-11-29T10:01:12.433Z,18.93
2018-11-29T10:04:22.529Z,19.17
2018-11-29T10:07:13.821Z,19.83
2018-11-29T10:10:05.549Z,18.23
2018-11-29T10:12:57.054Z,19.53
2018-11-29T10:16:23.624Z,19.23
2018-11-29T10:19:33.143Z,18.90
2018-11-29T10:22:26.952Z,19.00
2018-11-29T10:25:24.987Z,18.00
2018-11-29T10:28:19.196Z,18.80
2018-11-29T10:31:24.162Z,18.37
2018-11-29T10:34:21.812Z,19.57
2018-11-29T10:37:13.077Z,18.90
2018-11-29T10:40:03.936Z,18.40
2018-11-29T10:43:14.896Z,18.80
2018-11-29T10:46:05.698Z,18.43
2018-11-29T10:48:57.215Z,18.70
2018-11-29T10:54:46.660Z,18.43
2018-11-29T11:01:27.603Z,18.73
2018-11-29T11:04:38.990Z,18.37
2018-11-29T11:10:28.265Z,18.97
2018-11-29T11:13:39.056Z,18.13
2018-11-29T11:16:30.980Z,18.57
2018-11-29T11:19:42.781Z,17.80
2018-11-29T11:22:34.061Z,17.67
2018-11-29T11:25:58.927Z,17.60
2018-11-29T11:28:38.004Z,17.60
2018-11-29T11:31:48.007Z,17.40
2018-11-29T11:34:58.471Z,16.87
2018-11-29T11:37:49.209Z,16.37
2018-11-29T11:40:40.797Z,17.50
2018-11-29T11:43:31.930Z,17.23
2018-11-29T11:46:23.137Z,17.17
2018-11-29T11:49:13.886Z,16.87
2018-11-29T11:52:25.560Z,17.97
2018-11-29T11:55:19.211Z,16.40
2018-11-29T11:58:27.267Z,17.90
2018-11-29T12:01:19.811Z,17.30
2018-11-29T12:07:27.436Z,15.97
2018-11-29T12:10:37.664Z,16.87
2018-11-29T12:16:26.465Z,16.47
2018-11-29T12:19:18.162Z,17.23
2018-11-29T12:25:27.342Z,17.20
2018-11-29T12:28:18.720Z,17.23
2018-11-29T12:31:10.334Z,18.23
2018-11-29T12:34:02.049Z,16.00
2018-11-29T12:37:11.713Z,16.53
2018-11-29T12:43:19.687Z,16.93
2018-11-29T12:46:31.548Z,16.90
2018-11-29T12:49:23.036Z,15.87
2018-11-29T12:52:33.864Z,17.37
2018-11-29T12:55:25.851Z,17.10
2018-11-29T12:58:16.703Z,16.03
2018-11-29T13:04:56.705Z,15.47
2018-11-29T13:08:07.573Z,15.87
2018-11-29T13:14:14.520Z,15.27
2018-11-29T13:17:24.482Z,14.97
2018-11-29T13:20:16.845Z,15.83
2018-11-29T13:23:07.913Z,14.80
2018-11-29T13:25:59.278Z,15.30
2018-11-29T13:32:02.743Z,16.57
2018-11-29T13:34:53.544Z,14.90
2018-11-29T13:40:56.980Z,14.53
2018-11-29T13:43:49.377Z,15.17
2018-11-29T13:49:37.936Z,15.07
2018-11-29T13:52:30.806Z,16.17
2018-11-29T13:55:21.566Z,15.37
2018-11-29T13:58:12.323Z,14.33
2018-11-29T14:07:36.990Z,14.27
2018-11-29T14:10:48.723Z,14.87
2018-11-29T14:13:40.241Z,15.03
2018-11-29T14:16:30.968Z,14.53
2018-11-29T14:19:21.885Z,14.00
2018-11-29T14:22:32.205Z,13.67
2018-11-29T14:25:24.050Z,14.53
2018-11-29T14:28:14.874Z,14.00
2018-11-29T14:34:03.295Z,13.13
2018-11-29T14:37:14.883Z,13.73
2018-11-29T14:40:25.411Z,13.13
2018-11-29T14:46:34.495Z,13.90
2018-11-29T14:49:25.347Z,15.10
2018-11-29T14:52:35.818Z,13.83
2018-11-29T14:55:27.424Z,13.70
2018-11-29T14:58:30.783Z,13.17
2018-11-29T15:01:10.795Z,13.23
2018-11-29T15:04:01.516Z,14.40
2018-11-29T15:07:13.672Z,13.40
2018-11-29T15:10:04.650Z,13.17
2018-11-29T15:12:55.720Z,13.93
2018-11-29T15:15:47.317Z,14.07
2018-11-29T15:18:38.288Z,14.03
2018-11-29T15:21:29.207Z,13.30
2018-11-29T15:24:21.199Z,13.83
2018-11-29T15:30:42.540Z,13.73
2018-11-29T15:33:33.421Z,13.40
2018-11-29T15:36:43.537Z,13.90
2018-11-29T15:45:48.064Z,12.03
2018-11-29T15:48:39.617Z,10.93
2018-11-29T15:51:49.520Z,11.77
2018-11-29T15:55:00.678Z,11.03
2018-11-29T15:58:13.072Z,11.27
2018-11-29T16:01:08.351Z,11.53
2018-11-29T16:04:03.141Z,11.23
2018-11-29T16:07:13.520Z,11.63
2018-11-29T16:10:04.668Z,11.33
2018-11-29T16:13:16.595Z,10.57
2018-11-29T16:22:03.784Z,10.97
2018-11-29T16:24:54.595Z,10.50
2018-11-29T16:31:36.743Z,10.33
2018-11-29T16:34:28.308Z,10.53
2018-11-29T16:37:20.304Z,10.07
2018-11-29T16:40:30.659Z,10.77
2018-11-29T16:43:21.398Z,10.07
2018-11-29T16:46:12.342Z,10.20
2018-11-29T16:49:23.010Z,9.93
2018-11-29T16:52:15.144Z,10.10
2018-11-29T16:55:07.922Z,10.17
2018-11-29T16:58:02.305Z,10.70
2018-11-29T17:04:09.190Z,10.27
2018-11-29T17:07:00.391Z,9.27
2018-11-29T17:10:10.191Z,10.13
2018-11-29T17:13:24.282Z,9.87
2018-11-29T17:16:15.308Z,9.53
2018-11-29T17:19:06.568Z,9.70
2018-11-29T17:21:57.333Z,9.43
2018-11-29T17:27:59.884Z,8.73
2018-11-29T17:30:51.725Z,9.13
2018-11-29T17:36:55.279Z,11.63
2018-11-29T17:40:06.522Z,10.77
2018-11-29T17:42:50.563Z,10.23
2018-11-29T17:46:01.134Z,10.63
2018-11-29T17:49:10.891Z,9.40
2018-11-29T17:52:02.076Z,9.83
2018-11-29T17:58:42.049Z,9.53
2018-11-29T18:01:32.799Z,9.73
2018-11-29T18:04:23.851Z,9.23
2018-11-29T18:07:15.816Z,8.90
2018-11-29T18:10:28.106Z,9.17
2018-11-29T18:13:39.008Z,9.50
2018-11-29T18:16:30.018Z,9.13
2018-11-29T18:22:18.148Z,8.27
2018-11-29T18:25:30.856Z,8.90
2018-11-29T18:28:21.610Z,9.00
2018-11-29T18:31:24.685Z,9.63
2018-11-29T18:34:04.393Z,9.30
2018-11-29T18:36:55.224Z,9.83
2018-11-29T18:40:01.372Z,9.60
2018-11-29T18:42:58.940Z,9.13
2018-11-29T18:45:49.807Z,9.93
2018-11-29T18:49:01.591Z,9.20
2018-11-29T18:58:02.514Z,8.73
2018-11-29T19:01:14.234Z,9.13
2018-11-29T19:04:24.584Z,9.80
2018-11-29T19:07:34.581Z,9.30
2018-11-29T19:10:25.378Z,9.13
2018-11-29T19:16:47.284Z,9.20
2018-11-29T19:25:34.666Z,9.03
2018-11-29T19:28:26.241Z,8.97
2018-11-29T19:31:37.018Z,9.73
2018-11-29T19:34:28.567Z,8.50
2018-11-29T19:37:20.376Z,8.93
2018-11-29T19:40:30.057Z,9.23
2018-11-29T19:43:20.930Z,9.27
2018-11-29T19:46:12.003Z,8.90
2018-11-29T19:49:02.767Z,9.27
2018-11-29T19:52:12.738Z,8.97
2018-11-29T19:55:04.075Z,9.50
2018-11-29T19:58:14.679Z,8.47
2018-11-29T20:01:25.694Z,8.80
2018-11-29T20:04:16.443Z,9.00
2018-11-29T20:07:26.738Z,8.83
2018-11-29T20:10:35.768Z,9.37
2018-11-29T20:13:14.975Z,8.57
2018-11-29T20:16:18.654Z,9.57
2018-11-29T20:18:57.925Z,9.70
2018-11-29T20:21:49.055Z,8.90
2018-11-29T20:24:39.834Z,8.67
2018-11-29T20:31:07.706Z,9.20
2018-11-29T20:33:58.499Z,9.37
2018-11-29T20:37:08.937Z,9.13
2018-11-29T20:40:02.977Z,9.50
2018-11-29T20:42:56.282Z,9.43
2018-11-29T20:46:05.955Z,8.47
2018-11-29T20:48:56.997Z,8.70
2018-11-29T20:51:47.714Z,8.60
2018-11-29T20:55:01.217Z,9.10
2018-11-29T20:57:55.086Z,8.40
2018-11-29T21:01:06.555Z,8.67
2018-11-29T21:04:18.460Z,8.70
2018-11-29T21:10:48.717Z,8.97
2018-11-29T21:20:36.968Z,9.17
2018-11-29T21:23:32.767Z,10.07
2018-11-29T21:26:44.529Z,9.37
2018-11-29T21:29:57.943Z,10.33
2018-11-29T21:32:54.882Z,9.83
2018-11-29T21:36:06.978Z,10.57
2018-11-29T21:38:59.079Z,10.73
2018-11-29T21:42:08.755Z,9.93
2018-11-29T21:45:01.556Z,9.83
2018-11-29T21:47:52.924Z,9.40
2018-11-29T21:50:43.936Z,9.20
2018-11-29T21:53:36.333Z,9.33
2018-11-29T21:56:29.108Z,8.80
2018-11-29T21:59:39.949Z,8.47
2018-11-29T22:06:22.859Z,9.33
2018-11-29T22:09:02.382Z,8.80
2018-11-29T22:11:54.510Z,8.70
2018-11-29T22:15:07.358Z,8.57
2018-11-29T22:21:55.023Z,9.07
2018-11-29T22:25:17.972Z,8.50
2018-11-29T22:31:17.087Z,9.60
2018-11-29T22:34:30.963Z,8.23
2018-11-29T22:40:54.537Z,7.50
2018-11-29T22:44:05.695Z,7.97
2018-11-29T22:46:57.916Z,7.73
2018-11-29T22:49:49.633Z,10.00
2018-11-29T22:52:41.449Z,10.40
2018-11-29T22:55:33.228Z,8.80
2018-11-29T22:58:24.857Z,8.07
2018-11-29T23:01:34.690Z,8.17
2018-11-29T23:04:26.518Z,8.53
2018-11-29T23:07:18.693Z,8.73
2018-11-29T23:13:23.065Z,8.27
2018-11-29T23:16:15.431Z,8.20
2018-11-29T23:19:07.026Z,8.77
2018-11-29T23:22:36.024Z,9.03
2018-11-29T23:25:29.864Z,11.47
2018-11-29T23:28:22.125Z,9.37
2018-11-29T23:34:24.954Z,7.60
2018-11-29T23:41:06.725Z,7.93
2018-11-29T23:43:59.056Z,8.07
2018-11-29T23:46:51.323Z,8.37
2018-11-29T23:50:02.879Z,7.67
2018-11-29T23:53:13.631Z,7.97
2018-11-29T23:56:25.979Z,8.77
2018-11-29T23:59:17.590Z,7.73
